Levante — 9HOB7 — position and weather

sailwx.info

Track history (hours):
 
Tides and Currents Weather Stations Pressure Air Temp Water Temp Dewpoint Dewpoint Depression Visibility Wind Speed Wind Dir Waves Ship Positions

Levante

Last reported at 2015-Jul-15 09:11 UTC. Time now 2015-Aug-02 04:14 UTC.
Position N 26°20' W 079°24'.
Warning: this ship's position is 17 days out of date.

Length 188.3 m; beam 28 m; draft 10.1 m.

Type: Ship. MMSI: 215440000.

Date/timePositionNaut miles runAvg speedWind from/ knotsBaromVisibWave heightAir tempDewpointWater temp
2015-Jul-15 09:11N 26°20' W 079°24'1015.6
2015-Jul-15 08:31N 26°10' W 079°26'1515.7
2015-Jul-15 07:33N 25°55' W 079°28'  
2015-Jul-08 03:33N 29°31' W 094°53'9 9.0
2015-Jul-08 02:33N 29°38' W 094°58'8 8.3
2015-Jul-08 01:33N 29°45' W 095°04'2 1.2
2015-Jul-07 23:31N 29°45' W 095°07'0 0.0
2015-Jul-07 22:23N 29°45' W 095°07'0 0.0
2015-Jul-07 21:20N 29°45' W 095°07'0 0.0
2015-Jul-07 19:14N 29°45' W 095°07'  
2015-Jul-05 13:32N 29°45' W 095°06'6 5.6
2015-Jul-05 12:32N 29°42' W 095°00'9 8.7
2015-Jul-05 11:33N 29°35' W 094°56'10 9.8
2015-Jul-05 10:34N 29°26' W 094°50'10 9.4
2015-Jul-05 09:31N 29°20' W 094°41'  
Track history (hours):
 
Tides and Currents Weather Stations Pressure Air Temp Water Temp Dewpoint Dewpoint Depression Visibility Wind Speed Wind Dir Waves Ship Positions

Levante

Last reported at 2015-Jul-15 09:11 UTC. Time now 2015-Aug-02 04:14 UTC.
Position N 26°20' W 079°24'.
Warning: this ship's position is 17 days out of date.

Length 188.3 m; beam 28 m; draft 10.1 m.

Type: Ship. MMSI: 215440000.

Date/timePositionNaut miles runAvg speedWind from/ knotsBaromVisibWave heightAir tempDewpointWater temp
2015-Jul-15 09:11N 26°20' W 079°24'1015.6
2015-Jul-15 08:31N 26°10' W 079°26'1515.7
2015-Jul-15 07:33N 25°55' W 079°28'  
2015-Jul-08 03:33N 29°31' W 094°53'9 9.0
2015-Jul-08 02:33N 29°38' W 094°58'8 8.3
2015-Jul-08 01:33N 29°45' W 095°04'2 1.2
2015-Jul-07 23:31N 29°45' W 095°07'0 0.0
2015-Jul-07 22:23N 29°45' W 095°07'0 0.0
2015-Jul-07 21:20N 29°45' W 095°07'0 0.0
2015-Jul-07 19:14N 29°45' W 095°07'  
2015-Jul-05 13:32N 29°45' W 095°06'6 5.6
2015-Jul-05 12:32N 29°42' W 095°00'9 8.7
2015-Jul-05 11:33N 29°35' W 094°56'10 9.8
2015-Jul-05 10:34N 29°26' W 094°50'10 9.4
2015-Jul-05 09:31N 29°20' W 094°41'  

Dump ship's entire track history